createdAt,value
2022-12-26T00:02:00.477Z,35.50
2022-12-26T00:08:02.902Z,31.25
2022-12-26T00:14:09.164Z,40.58
2022-12-26T00:20:11.740Z,36.85
2022-12-26T00:32:20.073Z,33.78
2022-12-26T00:38:22.163Z,28.13
2022-12-26T00:44:24.526Z,29.30
2022-12-26T00:50:31.166Z,36.72
2022-12-26T00:56:36.765Z,36.42
2022-12-26T01:02:39.073Z,34.78
2022-12-26T01:08:44.781Z,25.90
2022-12-26T01:14:47.045Z,32.50
2022-12-26T01:20:49.695Z,23.25
2022-12-26T01:32:54.004Z,32.03
2022-12-26T01:38:56.409Z,25.73
2022-12-26T01:45:07.458Z,27.08
2022-12-26T01:51:09.956Z,30.10
2022-12-26T01:57:34.052Z,19.45
2022-12-26T02:03:57.720Z,27.95
2022-12-26T02:10:00.043Z,25.88
2022-12-26T02:16:03.880Z,19.48
2022-12-26T02:22:32.663Z,20.35
2022-12-26T02:28:51.414Z,23.95
2022-12-26T02:35:27.464Z,28.95
2022-12-26T02:42:01.541Z,26.63
2022-12-26T02:48:12.707Z,24.95
2022-12-26T02:54:55.129Z,27.52
2022-12-26T03:01:23.120Z,18.75
2022-12-26T03:07:48.845Z,20.48
2022-12-26T03:13:52.094Z,19.60
2022-12-26T03:20:02.571Z,20.77
2022-12-26T03:26:28.400Z,29.00
2022-12-26T03:32:43.048Z,24.80
2022-12-26T03:39:08.180Z,28.17
2022-12-26T03:45:39.626Z,28.05
2022-12-26T03:52:15.952Z,21.67
2022-12-26T03:59:02.902Z,22.40
2022-12-26T04:05:28.195Z,24.90
2022-12-26T04:11:49.567Z,30.00
2022-12-26T04:18:23.055Z,27.58
2022-12-26T04:24:48.287Z,21.42
2022-12-26T04:31:16.657Z,24.65
2022-12-26T04:37:43.358Z,26.60
2022-12-26T04:44:25.623Z,21.90
2022-12-26T04:50:27.941Z,26.02
2022-12-26T04:56:30.442Z,20.20
2022-12-26T05:09:23.416Z,26.85
2022-12-26T05:15:25.816Z,28.38
2022-12-26T05:21:47.045Z,17.52
2022-12-26T05:28:08.177Z,25.30
2022-12-26T05:34:16.325Z,30.30
2022-12-26T05:40:18.573Z,20.80
2022-12-26T05:46:20.862Z,16.65
2022-12-26T05:52:23.362Z,19.42
2022-12-26T05:58:25.830Z,19.38
2022-12-26T06:10:30.082Z,23.63
2022-12-26T06:16:32.332Z,18.52
2022-12-26T06:28:37.515Z,18.63
2022-12-26T06:40:42.214Z,15.73
2022-12-26T06:46:45.011Z,22.70
2022-12-26T06:52:47.305Z,16.60
2022-12-26T06:59:00.934Z,17.80
2022-12-26T07:11:05.918Z,21.05
2022-12-26T07:17:10.454Z,18.13
2022-12-26T07:23:12.772Z,17.60
2022-12-26T07:29:16.177Z,16.52
2022-12-26T07:35:18.398Z,14.90
2022-12-26T07:41:39.308Z,11.18
2022-12-26T07:47:41.588Z,14.32
2022-12-26T07:53:43.727Z,8.77
2022-12-26T07:59:46.388Z,11.33
2022-12-26T08:05:49.562Z,12.35
2022-12-26T08:11:51.961Z,21.92
2022-12-26T08:17:54.497Z,24.98
2022-12-26T08:29:58.988Z,36.17
2022-12-26T08:36:05.994Z,33.72
2022-12-26T08:42:08.576Z,31.67
2022-12-26T08:48:11.050Z,31.23
2022-12-26T08:54:13.251Z,27.98
2022-12-26T09:00:17.113Z,27.63
2022-12-26T09:06:19.416Z,32.70
2022-12-26T09:12:21.684Z,26.23
2022-12-26T09:18:24.037Z,24.77
2022-12-26T09:24:26.309Z,21.20
2022-12-26T09:30:28.516Z,26.00
2022-12-26T09:36:33.768Z,23.65
2022-12-26T09:42:42.430Z,19.95
2022-12-26T09:48:53.286Z,13.13
2022-12-26T09:55:00.113Z,14.02
2022-12-26T10:01:04.742Z,19.25
2022-12-26T10:07:28.435Z,18.25
2022-12-26T10:20:24.259Z,11.93
2022-12-26T10:26:37.411Z,11.77
2022-12-26T10:32:52.267Z,13.45
2022-12-26T10:38:56.875Z,20.52
2022-12-26T10:45:01.045Z,14.73
2022-12-26T10:51:03.871Z,11.82
2022-12-26T10:57:08.995Z,20.92
2022-12-26T11:03:14.552Z,15.50
2022-12-26T11:09:40.059Z,15.82
2022-12-26T11:15:49.236Z,21.05
2022-12-26T11:21:51.372Z,29.13
2022-12-26T11:27:56.463Z,18.03
2022-12-26T11:33:59.802Z,25.17
2022-12-26T11:40:02.957Z,17.35
2022-12-26T11:46:05.307Z,15.43
2022-12-26T11:52:44.995Z,21.58
2022-12-26T11:58:47.404Z,21.25
2022-12-26T12:04:52.172Z,17.73
2022-12-26T12:11:10.532Z,24.08
2022-12-26T12:17:36.602Z,24.90
2022-12-26T12:23:53.700Z,17.30
2022-12-26T12:30:16.020Z,23.88
2022-12-26T12:36:29.773Z,29.75
2022-12-26T12:42:50.727Z,28.58
2022-12-26T12:48:52.927Z,18.13
2022-12-26T12:55:29.207Z,25.13
2022-12-26T13:01:39.675Z,23.33
2022-12-26T13:07:48.515Z,16.38
2022-12-26T13:14:01.362Z,27.67
2022-12-26T13:20:16.341Z,21.50
2022-12-26T13:26:22.782Z,25.10
2022-12-26T13:32:30.691Z,30.88
2022-12-26T13:39:00.141Z,25.55
2022-12-26T13:45:36.169Z,17.15
2022-12-26T13:51:47.744Z,29.45
2022-12-26T13:58:14.524Z,26.65
2022-12-26T14:05:01.663Z,29.98
2022-12-26T14:11:22.422Z,31.27
2022-12-26T14:17:48.514Z,27.85
2022-12-26T14:24:17.028Z,23.92
2022-12-26T14:30:19.337Z,33.85
2022-12-26T14:36:53.861Z,29.67
2022-12-26T14:43:11.847Z,28.10
2022-12-26T14:49:24.038Z,46.47
2022-12-26T14:55:50.010Z,31.50
2022-12-26T15:02:01.273Z,31.70
2022-12-26T15:08:34.271Z,30.90
2022-12-26T15:15:07.163Z,38.58
2022-12-26T15:21:46.733Z,33.47
2022-12-26T15:27:58.364Z,32.28
2022-12-26T15:34:06.409Z,37.92
2022-12-26T15:40:24.538Z,44.10
2022-12-26T15:46:28.043Z,52.90
2022-12-26T15:52:44.184Z,51.33
2022-12-26T15:59:24.013Z,50.00
2022-12-26T16:05:59.764Z,47.08
2022-12-26T16:12:02.404Z,43.20
2022-12-26T16:18:27.528Z,38.72
2022-12-26T16:24:29.838Z,39.35
2022-12-26T16:30:36.890Z,44.28
2022-12-26T16:36:39.979Z,39.95
2022-12-26T16:42:54.770Z,41.70
2022-12-26T16:48:59.977Z,42.85
2022-12-26T16:55:35.636Z,40.92
2022-12-26T17:01:38.493Z,38.53
2022-12-26T17:07:45.828Z,34.25
2022-12-26T17:13:54.108Z,39.63
2022-12-26T17:19:58.567Z,52.15
2022-12-26T17:26:28.556Z,51.08
2022-12-26T17:32:46.372Z,55.63
2022-12-26T17:38:48.946Z,51.38
2022-12-26T17:44:51.163Z,42.40
2022-12-26T17:50:59.418Z,34.83
2022-12-26T17:57:02.209Z,46.75
2022-12-26T18:09:07.117Z,39.83
2022-12-26T18:21:13.864Z,40.10
2022-12-26T18:27:37.827Z,43.63
2022-12-26T18:33:40.070Z,37.30
2022-12-26T18:39:42.473Z,46.92
2022-12-26T18:45:45.195Z,46.03
2022-12-26T18:51:49.124Z,31.85
2022-12-26T18:57:52.747Z,39.38
2022-12-26T19:03:55.795Z,42.95
2022-12-26T19:09:59.813Z,39.08
2022-12-26T19:16:02.200Z,38.90
2022-12-26T19:22:05.434Z,41.65
2022-12-26T19:28:07.792Z,37.47
2022-12-26T19:34:10.671Z,31.98
2022-12-26T19:40:19.726Z,40.25
2022-12-26T19:46:26.140Z,44.27
2022-12-26T19:52:29.620Z,35.50
2022-12-26T19:58:32.532Z,28.58
2022-12-26T20:04:34.890Z,30.45
2022-12-26T20:10:37.655Z,43.08
2022-12-26T20:17:05.129Z,36.90
2022-12-26T20:23:02.270Z,30.48
2022-12-26T20:29:05.480Z,29.30
2022-12-26T20:35:08.256Z,36.00
2022-12-26T20:47:13.525Z,26.20
2022-12-26T20:53:15.926Z,31.48
2022-12-26T21:05:20.825Z,31.50
2022-12-26T21:11:25.853Z,26.25
2022-12-26T21:17:28.270Z,44.08
2022-12-26T21:23:30.635Z,30.85
2022-12-26T21:29:34.733Z,28.92
2022-12-26T21:35:37.962Z,28.83
2022-12-26T21:41:41.197Z,30.77
2022-12-26T21:47:43.541Z,30.13
2022-12-26T21:53:46.919Z,33.15
2022-12-26T21:59:59.514Z,32.83
2022-12-26T22:06:02.327Z,35.25
2022-12-26T22:12:23.631Z,37.28
2022-12-26T22:18:26.751Z,37.92
2022-12-26T22:24:29.028Z,49.10
2022-12-26T22:30:31.934Z,50.00
2022-12-26T22:36:35.658Z,49.33
2022-12-26T22:42:37.644Z,39.78
2022-12-26T22:48:40.323Z,43.60
2022-12-26T23:00:47.134Z,42.70
2022-12-26T23:06:49.571Z,40.80
2022-12-26T23:12:52.581Z,48.22
2022-12-26T23:19:44.578Z,39.05
2022-12-26T23:25:46.848Z,44.88
2022-12-26T23:31:48.945Z,36.45
2022-12-26T23:37:52.088Z,32.78
2022-12-26T23:43:54.556Z,41.63
2022-12-26T23:49:56.772Z,38.22
2022-12-26T23:55:59.326Z,41.13
